createdAt,value
2022-09-23T00:00:15.868Z,2.85
2022-09-23T00:06:05.887Z,2.70
2022-09-23T00:11:52.602Z,2.60
2022-09-23T00:17:40.701Z,2.72
2022-09-23T00:23:27.454Z,2.58
2022-09-23T00:29:14.144Z,2.38
2022-09-23T00:35:01.115Z,2.45
2022-09-23T00:40:55.598Z,3.30
2022-09-23T00:46:43.779Z,2.80
2022-09-23T00:52:32.257Z,2.72
2022-09-23T00:58:27.060Z,3.10
2022-09-23T01:04:14.746Z,3.03
2022-09-23T01:10:10.047Z,2.80
2022-09-23T01:16:10.670Z,2.90
2022-09-23T01:22:21.885Z,2.75
2022-09-23T01:28:33.393Z,3.20
2022-09-23T01:34:48.760Z,3.15
2022-09-23T01:40:42.713Z,3.13
2022-09-23T01:46:46.049Z,3.20
2022-09-23T01:52:38.279Z,3.45
2022-09-23T01:58:30.696Z,3.25
2022-09-23T02:04:45.658Z,3.40
2022-09-23T02:10:43.869Z,3.83
2022-09-23T02:16:43.755Z,3.80
2022-09-23T02:22:55.992Z,3.63
2022-09-23T02:29:07.908Z,3.43
2022-09-23T02:35:02.610Z,4.10
2022-09-23T02:41:07.612Z,3.23
2022-09-23T02:46:58.764Z,3.15
2022-09-23T02:52:46.948Z,3.22
2022-09-23T02:58:34.479Z,3.47
2022-09-23T03:04:21.272Z,3.63
2022-09-23T03:10:26.916Z,3.33
2022-09-23T03:16:35.000Z,2.95
2022-09-23T03:22:29.812Z,3.25
2022-09-23T03:28:20.390Z,3.05
2022-09-23T03:34:14.566Z,3.28
2022-09-23T03:40:10.167Z,3.40
2022-09-23T03:45:58.326Z,3.38
2022-09-23T03:51:45.125Z,2.97
2022-09-23T03:57:33.831Z,2.92
2022-09-23T04:03:27.999Z,3.70
2022-09-23T04:09:15.072Z,3.72
2022-09-23T04:15:01.765Z,3.35
2022-09-23T04:20:50.734Z,3.08
2022-09-23T04:26:40.294Z,3.55
2022-09-23T04:32:30.147Z,3.55
2022-09-23T04:38:16.998Z,3.25
2022-09-23T04:44:04.839Z,3.55
2022-09-23T04:49:51.665Z,3.15
2022-09-23T04:55:38.344Z,3.10
2022-09-23T05:01:27.448Z,3.20
2022-09-23T05:07:14.309Z,2.63
2022-09-23T05:13:01.053Z,3.15
2022-09-23T05:18:49.093Z,3.25
2022-09-23T05:24:36.491Z,3.25
2022-09-23T05:30:23.266Z,3.22
2022-09-23T05:36:10.546Z,3.03
2022-09-23T05:42:00.095Z,3.30
2022-09-23T05:47:47.090Z,3.08
2022-09-23T05:53:37.259Z,3.17
2022-09-23T05:59:24.223Z,3.80
2022-09-23T06:05:14.221Z,3.65
2022-09-23T06:11:08.711Z,3.78
2022-09-23T06:16:55.783Z,4.30
2022-09-23T06:22:42.565Z,4.10
2022-09-23T06:28:36.679Z,4.28
2022-09-23T06:34:23.346Z,4.07
2022-09-23T06:40:10.417Z,3.75
2022-09-23T06:46:01.171Z,3.78
2022-09-23T06:52:03.912Z,3.83
2022-09-23T06:57:54.124Z,4.28
2022-09-23T07:03:47.292Z,3.40
2022-09-23T07:09:42.103Z,3.70
2022-09-23T07:15:35.083Z,3.78
2022-09-23T07:21:24.063Z,3.95
2022-09-23T07:27:16.679Z,3.42
2022-09-23T07:39:04.433Z,3.08
2022-09-23T07:44:52.491Z,3.03
2022-09-23T07:56:46.690Z,3.35
2022-09-23T08:02:33.979Z,3.47
2022-09-23T08:08:21.403Z,4.05
2022-09-23T08:14:22.468Z,3.90
2022-09-23T08:20:31.226Z,4.88
2022-09-23T08:26:22.404Z,4.68
2022-09-23T08:32:13.328Z,4.68
2022-09-23T08:38:00.263Z,4.10
2022-09-23T08:43:52.169Z,4.13
2022-09-23T08:49:45.748Z,6.00
2022-09-23T08:55:41.569Z,6.95
2022-09-23T09:01:37.660Z,7.50
2022-09-23T09:07:36.535Z,8.07
2022-09-23T09:13:43.204Z,7.88
2022-09-23T09:19:51.925Z,8.95
2022-09-23T09:26:02.082Z,10.23
2022-09-23T09:31:50.649Z,10.82
2022-09-23T09:37:49.763Z,10.05
2022-09-23T09:43:43.462Z,10.63
2022-09-23T09:49:51.944Z,10.40
2022-09-23T09:55:38.982Z,10.38
2022-09-23T10:01:34.100Z,10.63
2022-09-23T10:07:26.449Z,10.43
2022-09-23T10:13:21.046Z,10.27
2022-09-23T10:19:35.602Z,9.55
2022-09-23T10:25:27.604Z,9.00
2022-09-23T10:31:27.570Z,8.20
2022-09-23T10:37:24.079Z,8.18
2022-09-23T10:43:47.854Z,8.13
2022-09-23T10:49:58.709Z,8.48
2022-09-23T10:56:03.744Z,7.55
2022-09-23T11:02:13.269Z,8.27
2022-09-23T11:08:21.494Z,8.07
2022-09-23T11:14:23.305Z,5.32
2022-09-23T11:20:34.370Z,5.13
2022-09-23T11:26:36.888Z,5.75
2022-09-23T11:32:23.726Z,4.90
2022-09-23T11:38:15.019Z,4.85
2022-09-23T11:44:13.404Z,3.85
2022-09-23T11:50:38.289Z,3.00
2022-09-23T11:56:46.951Z,2.53
2022-09-23T12:02:41.928Z,2.83
2022-09-23T12:08:37.103Z,3.10
2022-09-23T12:14:51.250Z,2.67
2022-09-23T12:20:59.876Z,3.22
2022-09-23T12:26:51.964Z,3.33
2022-09-23T12:32:39.178Z,2.83
2022-09-23T12:38:38.577Z,3.25
2022-09-23T12:44:37.079Z,3.47
2022-09-23T12:51:07.949Z,2.38
2022-09-23T12:56:54.665Z,2.17
2022-09-23T13:02:47.550Z,2.33
2022-09-23T13:08:38.163Z,2.33
2022-09-23T13:14:27.661Z,2.38
2022-09-23T13:20:20.680Z,2.03
2022-09-23T13:26:14.667Z,2.40
2022-09-23T13:32:04.915Z,1.88
2022-09-23T13:37:51.936Z,2.17
2022-09-23T13:43:43.411Z,1.80
2022-09-23T13:49:35.261Z,1.35
2022-09-23T13:55:33.496Z,1.53
2022-09-23T14:01:32.585Z,1.13
2022-09-23T14:07:22.689Z,1.58
2022-09-23T14:13:21.291Z,1.77
2022-09-23T14:19:18.187Z,2.30
2022-09-23T14:25:05.581Z,2.78
2022-09-23T14:30:57.452Z,2.95
2022-09-23T14:37:03.044Z,3.00
2022-09-23T14:42:56.617Z,2.60
2022-09-23T14:48:53.186Z,3.13
2022-09-23T14:54:39.795Z,2.75
2022-09-23T15:00:27.035Z,3.42
2022-09-23T15:06:15.948Z,3.15
2022-09-23T15:12:06.792Z,2.05
2022-09-23T15:17:54.308Z,2.15
2022-09-23T15:23:42.470Z,2.42
2022-09-23T15:29:29.508Z,2.70
2022-09-23T15:35:19.812Z,3.65
2022-09-23T15:41:07.217Z,2.85
2022-09-23T15:47:00.864Z,3.38
2022-09-23T15:52:47.819Z,3.22
2022-09-23T15:58:36.095Z,3.50
2022-09-23T16:04:23.074Z,3.65
2022-09-23T16:10:10.981Z,3.67
2022-09-23T16:15:58.025Z,3.90
2022-09-23T16:21:44.945Z,3.97
2022-09-23T16:27:31.743Z,3.67
2022-09-23T16:33:18.672Z,3.95
2022-09-23T16:39:25.033Z,3.22
2022-09-23T16:45:12.110Z,3.58
2022-09-23T16:51:04.608Z,4.15
2022-09-23T16:56:55.180Z,4.18
2022-09-23T17:03:00.393Z,5.10
2022-09-23T17:08:54.910Z,5.28
2022-09-23T17:14:41.866Z,5.07
2022-09-23T17:20:28.471Z,3.60
2022-09-23T17:26:15.249Z,3.13
2022-09-23T17:32:02.363Z,3.70
2022-09-23T17:37:51.373Z,3.20
2022-09-23T17:43:38.939Z,3.20
2022-09-23T17:49:25.836Z,3.15
2022-09-23T17:55:12.944Z,2.35
2022-09-23T18:01:00.282Z,2.60
2022-09-23T18:06:47.451Z,2.28
2022-09-23T18:12:35.081Z,2.20
2022-09-23T18:18:42.487Z,2.80
2022-09-23T18:24:33.387Z,2.30
2022-09-23T18:30:20.490Z,1.65
2022-09-23T18:36:07.908Z,1.20
2022-09-23T18:41:55.896Z,1.40
2022-09-23T18:48:01.448Z,1.50
2022-09-23T18:53:49.782Z,2.22
2022-09-23T18:59:36.656Z,4.60
2022-09-23T19:05:23.484Z,2.58
2022-09-23T19:11:13.407Z,1.60
2022-09-23T19:17:00.534Z,2.35
2022-09-23T19:22:52.488Z,1.88
2022-09-23T19:28:39.858Z,2.50
2022-09-23T19:35:55.862Z,1.90
2022-09-23T19:41:42.929Z,1.83
2022-09-23T19:47:42.646Z,2.10
2022-09-23T19:53:30.417Z,1.40
2022-09-23T19:59:19.189Z,1.90
2022-09-23T20:05:22.987Z,1.90
2022-09-23T20:11:16.473Z,1.95
2022-09-23T20:17:03.213Z,2.28
2022-09-23T20:22:56.932Z,1.88
2022-09-23T20:28:45.310Z,1.90
2022-09-23T20:34:33.772Z,1.77
2022-09-23T20:40:23.095Z,1.92
2022-09-23T20:46:10.273Z,1.67
2022-09-23T20:52:17.301Z,3.05
2022-09-23T20:59:16.367Z,2.05
2022-09-23T21:05:07.327Z,1.90
2022-09-23T21:10:59.454Z,1.57
2022-09-23T21:16:51.387Z,1.60
2022-09-23T21:22:38.087Z,1.67
2022-09-23T21:28:36.363Z,1.83
2022-09-23T21:34:28.094Z,3.13
2022-09-23T21:40:34.958Z,2.13
2022-09-23T21:46:28.525Z,1.77
2022-09-23T21:52:16.694Z,1.88
2022-09-23T21:58:07.468Z,1.83
2022-09-23T22:04:29.053Z,1.37
2022-09-23T22:10:18.935Z,1.67
2022-09-23T22:16:16.802Z,1.55
2022-09-23T22:22:14.888Z,1.60
2022-09-23T22:28:22.971Z,1.50
2022-09-23T22:34:30.997Z,1.30
2022-09-23T22:40:20.017Z,1.23
2022-09-23T22:46:07.154Z,1.48
2022-09-23T22:51:53.964Z,1.50
2022-09-23T22:57:40.898Z,2.00
2022-09-23T23:03:27.704Z,1.70
2022-09-23T23:09:18.860Z,2.13
2022-09-23T23:15:05.937Z,1.95
2022-09-23T23:20:52.807Z,1.50
2022-09-23T23:26:39.463Z,1.85
2022-09-23T23:32:26.874Z,2.38
2022-09-23T23:38:13.507Z,1.67
2022-09-23T23:44:01.196Z,1.45
2022-09-23T23:49:47.910Z,1.63
2022-09-23T23:55:38.710Z,1.77
